Time;durP1;ratioP1;P1;durP2;ratioP2;P2;SDS_P1;SDS_P2;PMS_P1;PMS_P2;Temp;Humidity;BMP_temperature;BMP_pressure;BME280_temperature;BME280_humidity;BME280_pressure;Samples;Min_cycle;Max_cycle;Signal;HPM_P1;HPM_P2
2021/03/05 00:00:19;;;;;;;7.90;2.13;;;3.30;99.90;;;;;;4872714;29;20033;-94
2021/03/05 00:02:45;;;;;;;12.18;2.45;;;3.30;99.90;;;;;;4869011;29;20090;-95
2021/03/05 00:05:14;;;;;;;9.98;2.35;;;3.30;99.90;;;;;;4872338;29;20068;-95
2021/03/05 00:07:40;;;;;;;6.30;1.50;;;3.30;99.90;;;;;;4870076;29;20049;-93
2021/03/05 00:10:12;;;;;;;8.07;1.55;;;3.30;99.90;;;;;;4871733;29;20037;-93
2021/03/05 00:12:38;;;;;;;7.70;1.63;;;3.30;99.90;;;;;;4862190;29;20094;-94
2021/03/05 00:15:08;;;;;;;8.15;1.80;;;3.40;99.90;;;;;;4864083;29;20040;-92
2021/03/05 00:17:37;;;;;;;6.93;2.70;;;3.30;99.90;;;;;;4871999;29;20038;-95
2021/03/05 00:20:16;;;;;;;13.35;2.22;;;3.30;99.90;;;;;;4865213;29;20053;-92
2021/03/05 00:22:42;;;;;;;11.25;2.38;;;3.30;99.90;;;;;;4870412;29;20507;-93
2021/03/05 00:25:09;;;;;;;10.82;2.72;;;3.40;99.90;;;;;;4869546;29;20104;-95
2021/03/05 00:27:35;;;;;;;15.75;2.15;;;3.30;99.90;;;;;;4866489;29;20042;-93
2021/03/05 00:30:02;;;;;;;14.15;2.28;;;3.30;99.90;;;;;;4868352;29;20028;-93
2021/03/05 00:32:28;;;;;;;5.82;2.20;;;3.40;99.90;;;;;;4866615;29;20452;-95
2021/03/05 00:34:53;;;;;;;16.10;2.38;;;3.40;99.90;;;;;;4864428;29;20021;-94
2021/03/05 00:37:19;;;;;;;13.95;2.83;;;3.30;99.90;;;;;;4865942;29;20036;-93
2021/03/05 00:39:45;;;;;;;9.75;2.88;;;3.40;99.90;;;;;;4863824;29;20045;-93
2021/03/05 00:42:11;;;;;;;15.90;3.28;;;3.30;99.90;;;;;;4862297;29;20032;-93
2021/03/05 00:44:37;;;;;;;12.23;2.30;;;3.30;99.90;;;;;;4861697;29;20033;-93
2021/03/05 00:47:03;;;;;;;12.77;2.25;;;3.30;99.90;;;;;;4860017;29;20224;-91
2021/03/05 00:49:28;;;;;;;8.18;2.50;;;3.30;99.90;;;;;;4859697;29;20146;-91
2021/03/05 00:51:54;;;;;;;17.55;2.50;;;3.30;99.90;;;;;;4859174;29;20038;-94
2021/03/05 00:54:20;;;;;;;11.90;1.98;;;3.30;99.90;;;;;;4859138;29;20031;-94
2021/03/05 00:56:46;;;;;;;11.02;2.28;;;3.20;99.90;;;;;;4859889;29;20049;-94
2021/03/05 00:59:12;;;;;;;11.95;2.35;;;3.30;99.90;;;;;;4860877;29;20403;-94
2021/03/05 01:01:37;;;;;;;9.85;2.38;;;3.30;99.90;;;;;;4862066;29;20042;-94
2021/03/05 01:04:03;;;;;;;17.13;3.45;;;3.20;99.90;;;;;;4862266;29;20046;-94
2021/03/05 01:06:29;;;;;;;6.68;2.55;;;3.30;99.90;;;;;;4862086;29;20033;-94
2021/03/05 01:08:54;;;;;;;10.95;2.85;;;3.30;99.90;;;;;;4861660;29;20022;-93
2021/03/05 01:11:20;;;;;;;9.98;2.97;;;3.30;99.90;;;;;;4861468;29;20026;-94
2021/03/05 01:13:46;;;;;;;9.25;3.00;;;3.30;99.90;;;;;;4861445;29;20040;-95
2021/03/05 01:16:12;;;;;;;13.95;2.90;;;3.40;99.90;;;;;;4861390;29;20033;-95
2021/03/05 01:18:38;;;;;;;12.13;2.92;;;3.40;99.90;;;;;;4859249;29;20383;-95
2021/03/05 01:21:05;;;;;;;9.38;2.08;;;3.30;99.90;;;;;;4862993;29;20032;-93
2021/03/05 01:23:31;;;;;;;12.05;2.92;;;3.30;99.90;;;;;;4861455;29;20026;-94
2021/03/05 01:25:56;;;;;;;12.27;2.55;;;3.30;99.90;;;;;;4861151;29;20547;-96
2021/03/05 01:28:23;;;;;;;8.98;1.95;;;3.30;99.90;;;;;;4861564;29;20037;-95
2021/03/05 01:30:49;;;;;;;7.07;2.05;;;3.30;99.90;;;;;;4861611;29;20526;-95
2021/03/05 01:33:15;;;;;;;10.13;1.58;;;3.30;99.90;;;;;;4862351;29;20017;-94
2021/03/05 01:35:41;;;;;;;8.55;2.00;;;3.30;99.90;;;;;;4861621;29;20057;-95
2021/03/05 01:38:07;;;;;;;11.75;3.35;;;3.30;99.90;;;;;;4863599;29;20022;-94
2021/03/05 01:40:36;;;;;;;14.50;2.17;;;3.20;99.90;;;;;;4862289;29;20058;-93
2021/03/05 01:43:05;;;;;;;8.45;2.13;;;3.30;99.90;;;;;;4862242;29;20032;-94
2021/03/05 01:45:31;;;;;;;10.48;1.67;;;3.20;99.90;;;;;;4874270;29;20032;-93
2021/03/05 01:48:00;;;;;;;14.15;2.13;;;3.20;99.90;;;;;;4864997;29;20022;-94
2021/03/05 01:50:30;;;;;;;7.95;1.50;;;3.20;99.90;;;;;;4860775;29;20465;-96
2021/03/05 01:52:59;;;;;;;6.82;1.25;;;3.20;99.90;;;;;;4862980;29;20049;-95
2021/03/05 01:55:25;;;;;;;8.35;1.10;;;3.20;99.90;;;;;;4864247;29;20029;-94
2021/03/05 01:57:51;;;;;;;11.55;1.70;;;3.30;99.90;;;;;;4866177;29;20050;-93
2021/03/05 02:00:23;;;;;;;11.93;1.70;;;3.20;99.90;;;;;;4866115;29;20025;-93
2021/03/05 02:02:49;;;;;;;4.70;1.05;;;3.20;99.90;;;;;;4864115;29;20028;-94
2021/03/05 02:05:15;;;;;;;2.90;0.82;;;3.20;99.90;;;;;;4858220;29;20034;-95
2021/03/05 02:07:40;;;;;;;9.18;1.35;;;3.20;99.90;;;;;;4864150;29;20247;-94
2021/03/05 02:10:07;;;;;;;7.40;1.10;;;3.20;99.90;;;;;;4863369;29;20026;-93
2021/03/05 02:12:33;;;;;;;8.65;1.23;;;3.20;99.90;;;;;;4865192;29;20041;-94
2021/03/05 02:15:00;;;;;;;7.45;1.20;;;3.20;99.90;;;;;;4863266;29;20046;-93
2021/03/05 02:17:33;;;;;;;3.70;0.77;;;3.20;99.90;;;;;;4863302;29;20042;-93
2021/03/05 02:20:24;;;;;;;6.53;1.48;;;3.20;99.90;;;;;;4854043;29;20524;-93
2021/03/05 02:22:57;;;;;;;4.82;1.00;;;3.20;99.90;;;;;;4861676;29;20034;-95
2021/03/05 02:25:32;;;;;;;7.57;1.10;;;3.20;99.90;;;;;;4854726;29;20041;-93
2021/03/05 02:28:15;;;;;;;4.32;1.00;;;3.20;99.90;;;;;;4865427;29;20041;-94
2021/03/05 02:31:23;;;;;;;15.45;1.50;;;3.20;99.90;;;;;;4860989;29;20033;-95
2021/03/05 02:33:57;;;;;;;7.45;1.77;;;3.10;99.90;;;;;;4852087;29;20038;-95
2021/03/05 02:36:34;;;;;;;8.45;1.52;;;3.20;99.90;;;;;;4863178;29;20050;-93
2021/03/05 02:39:14;;;;;;;7.68;1.10;;;3.20;99.90;;;;;;4854367;29;20084;-94
2021/03/05 02:41:42;;;;;;;6.35;1.02;;;3.20;99.90;;;;;;4863921;29;20017;-92
2021/03/05 02:44:12;;;;;;;6.68;1.13;;;3.10;99.90;;;;;;4863653;29;20037;-93
2021/03/05 02:46:40;;;;;;;6.60;1.77;;;3.20;99.90;;;;;;4860927;29;20025;-94
2021/03/05 02:49:09;;;;;;;9.65;1.38;;;3.10;99.90;;;;;;4863425;29;20037;-93
2021/03/05 02:51:36;;;;;;;7.35;1.75;;;3.10;99.90;;;;;;4862070;29;20037;-94
2021/03/05 02:54:03;;;;;;;5.38;1.30;;;3.20;99.90;;;;;;4861999;29;20169;-94
2021/03/05 02:56:32;;;;;;;7.15;1.45;;;3.20;99.90;;;;;;4862832;29;20034;-94
2021/03/05 02:58:59;;;;;;;6.65;1.30;;;3.20;99.90;;;;;;4862836;29;20026;-93
2021/03/05 03:01:26;;;;;;;3.40;1.45;;;3.10;99.90;;;;;;4863439;29;20033;-94
2021/03/05 03:03:56;;;;;;;6.57;1.60;;;3.20;99.90;;;;;;4862589;29;20022;-93
2021/03/05 03:06:25;;;;;;;4.78;1.63;;;3.10;99.90;;;;;;4862522;29;20049;-94
2021/03/05 03:08:55;;;;;;;9.35;1.67;;;3.10;99.90;;;;;;4863131;29;20037;-93
2021/03/05 03:11:21;;;;;;;4.85;1.65;;;3.10;99.90;;;;;;4861177;29;20070;-94
2021/03/05 03:13:48;;;;;;;7.68;1.60;;;3.10;99.90;;;;;;4863357;29;20033;-92
2021/03/05 03:16:16;;;;;;;6.45;1.50;;;3.10;99.90;;;;;;4863335;29;20021;-94
2021/03/05 03:18:43;;;;;;;6.80;2.05;;;3.10;99.90;;;;;;4870106;29;20032;-92
2021/03/05 03:21:09;;;;;;;5.60;1.73;;;3.10;99.90;;;;;;4870013;29;20025;-94
2021/03/05 03:23:35;;;;;;;6.28;1.63;;;3.00;99.90;;;;;;4866939;29;20030;-94
2021/03/05 03:26:02;;;;;;;7.65;1.65;;;3.10;99.90;;;;;;4864488;29;20034;-94
2021/03/05 03:28:28;;;;;;;9.95;2.13;;;3.10;99.90;;;;;;4862096;29;20029;-92
2021/03/05 03:30:54;;;;;;;6.13;1.70;;;3.10;99.90;;;;;;4861998;29;20162;-94
2021/03/05 03:33:20;;;;;;;5.38;1.70;;;3.10;99.90;;;;;;4861832;29;20040;-93
2021/03/05 03:35:47;;;;;;;7.97;2.00;;;3.10;99.90;;;;;;4863000;29;20038;-93
2021/03/05 03:38:13;;;;;;;9.13;1.90;;;3.00;99.90;;;;;;4862726;29;20057;-93
2021/03/05 03:40:42;;;;;;;10.45;2.17;;;3.10;99.90;;;;;;4857632;29;20044;-92
2021/03/05 03:43:07;;;;;;;5.13;1.38;;;3.00;99.90;;;;;;4852954;29;20037;-94
2021/03/05 03:45:36;;;;;;;6.05;1.55;;;3.00;99.90;;;;;;4861194;29;20041;-93
2021/03/05 03:48:03;;;;;;;4.63;1.77;;;3.00;99.90;;;;;;4861085;29;20583;-93
2021/03/05 03:50:34;;;;;;;5.75;1.80;;;3.00;99.90;;;;;;4861004;29;20539;-91
2021/03/05 03:53:13;;;;;;;6.07;1.55;;;3.00;99.90;;;;;;4853193;29;20085;-92
2021/03/05 03:55:40;;;;;;;4.85;1.38;;;3.00;99.90;;;;;;4859776;29;20041;-93
2021/03/05 03:58:07;;;;;;;7.40;1.30;;;3.10;99.90;;;;;;4860950;29;20110;-92
2021/03/05 04:00:35;;;;;;;6.78;1.33;;;3.10;99.90;;;;;;4860640;29;20025;-91
2021/03/05 04:03:04;;;;;;;5.28;1.35;;;3.10;99.90;;;;;;4858884;29;20082;-93
2021/03/05 04:05:33;;;;;;;5.65;1.30;;;3.10;99.90;;;;;;4858576;29;20036;-94
2021/03/05 04:08:00;;;;;;;6.40;1.80;;;3.10;99.90;;;;;;4857138;29;20036;-94
2021/03/05 04:10:27;;;;;;;8.77;1.35;;;3.10;99.90;;;;;;4859494;29;20037;-94
2021/03/05 04:12:55;;;;;;;1.98;1.10;;;3.10;99.90;;;;;;4859815;29;20117;-92
2021/03/05 04:15:22;;;;;;;7.25;1.25;;;3.10;99.90;;;;;;4858767;29;20026;-93
2021/03/05 04:17:48;;;;;;;3.72;1.10;;;3.10;99.90;;;;;;4866781;29;20032;-92
2021/03/05 04:20:15;;;;;;;6.72;1.25;;;3.10;99.90;;;;;;4871301;29;20025;-93
2021/03/05 04:22:46;;;;;;;9.20;1.25;;;3.00;99.90;;;;;;4861931;29;20068;-92
2021/03/05 04:25:16;;;;;;;6.38;1.63;;;3.00;99.90;;;;;;4861217;29;20025;-93
2021/03/05 04:27:42;;;;;;;1.98;1.00;;;3.00;99.90;;;;;;4859182;29;20082;-94
2021/03/05 04:30:09;;;;;;;3.70;1.13;;;3.00;99.90;;;;;;4860291;29;20025;-94
2021/03/05 04:32:35;;;;;;;10.32;1.50;;;3.00;99.90;;;;;;4859898;29;20044;-92
2021/03/05 04:35:01;;;;;;;6.30;1.23;;;3.00;99.90;;;;;;4860556;29;20025;-92
2021/03/05 04:37:27;;;;;;;6.70;1.10;;;3.00;99.90;;;;;;4860504;29;20124;-93
2021/03/05 04:39:52;;;;;;;6.97;1.30;;;3.00;99.90;;;;;;4859695;29;20073;-93
2021/03/05 04:42:18;;;;;;;9.20;1.17;;;3.00;99.90;;;;;;4860726;29;20026;-93
2021/03/05 04:44:44;;;;;;;4.40;0.95;;;3.00;99.90;;;;;;4860411;29;20398;-94
2021/03/05 04:47:10;;;;;;;5.35;1.13;;;3.00;99.90;;;;;;4859682;29;20113;-94
2021/03/05 04:49:35;;;;;;;4.63;1.08;;;3.00;99.90;;;;;;4859690;29;20036;-95
2021/03/05 04:52:01;;;;;;;6.45;1.38;;;3.00;99.90;;;;;;4860073;29;20069;-95
2021/03/05 04:54:26;;;;;;;3.80;0.88;;;3.00;99.90;;;;;;4860855;29;20022;-95
2021/03/05 04:56:52;;;;;;;6.10;1.00;;;2.90;99.90;;;;;;4861261;29;20057;-94
2021/03/05 04:59:18;;;;;;;5.22;0.95;;;3.00;99.90;;;;;;4861739;29;20057;-95
2021/03/05 05:01:43;;;;;;;5.50;1.08;;;3.00;99.90;;;;;;4862788;29;20037;-94
2021/03/05 05:04:09;;;;;;;5.18;0.75;;;2.90;99.90;;;;;;4861177;29;20805;-95
2021/03/05 05:06:35;;;;;;;5.53;1.08;;;3.00;99.90;;;;;;4862599;29;20037;-94
2021/03/05 05:09:00;;;;;;;10.40;2.78;;;2.90;99.90;;;;;;4862966;29;20026;-95
2021/03/05 05:11:26;;;;;;;4.28;0.80;;;2.90;99.90;;;;;;4862997;29;20479;-95
2021/03/05 05:13:51;;;;;;;4.45;0.93;;;2.90;99.90;;;;;;4861710;29;20029;-95
2021/03/05 05:16:17;;;;;;;6.43;0.85;;;2.90;99.90;;;;;;4860009;29;20026;-93
2021/03/05 05:18:43;;;;;;;4.05;0.98;;;2.90;99.90;;;;;;4861232;29;20037;-95
2021/03/05 05:21:08;;;;;;;12.63;1.73;;;2.80;99.90;;;;;;4861080;29;20034;-95
2021/03/05 05:23:34;;;;;;;9.63;1.50;;;2.90;99.90;;;;;;4861872;29;20033;-94
2021/03/05 05:26:00;;;;;;;5.60;1.10;;;2.90;99.90;;;;;;4860789;29;20033;-94
2021/03/05 05:28:25;;;;;;;4.35;0.70;;;2.90;99.90;;;;;;4863289;29;20416;-93
2021/03/05 05:30:51;;;;;;;3.72;0.95;;;2.90;99.90;;;;;;4863910;29;20112;-93
2021/03/05 05:33:17;;;;;;;4.97;0.88;;;2.90;99.90;;;;;;4863570;29;20036;-93
2021/03/05 05:35:43;;;;;;;3.10;1.00;;;2.90;99.90;;;;;;4864154;29;20026;-94
2021/03/05 05:38:09;;;;;;;5.45;0.98;;;2.90;99.90;;;;;;4864822;29;20565;-93
2021/03/05 05:40:35;;;;;;;7.25;1.17;;;2.90;99.90;;;;;;4864295;29;20411;-93
2021/03/05 05:43:01;;;;;;;2.83;0.80;;;2.90;99.90;;;;;;4863577;29;20084;-94
2021/03/05 05:45:26;;;;;;;6.13;0.80;;;2.90;99.90;;;;;;4865776;29;20060;-94
2021/03/05 05:47:57;;;;;;;4.18;0.73;;;2.90;99.90;;;;;;4865022;29;20025;-93
2021/03/05 05:50:24;;;;;;;8.20;1.02;;;2.90;99.90;;;;;;4872759;29;20041;-94
2021/03/05 05:52:55;;;;;;;9.13;1.45;;;2.90;99.90;;;;;;4867444;29;20042;-94
2021/03/05 05:55:23;;;;;;;7.72;1.10;;;2.90;99.90;;;;;;4862165;29;20029;-94
2021/03/05 05:57:48;;;;;;;4.80;0.90;;;2.90;99.90;;;;;;4863853;29;20112;-92
2021/03/05 06:00:15;;;;;;;8.25;1.10;;;2.90;99.90;;;;;;4862081;29;20567;-92
2021/03/05 06:02:44;;;;;;;4.68;0.80;;;2.80;99.90;;;;;;4864410;29;20033;-94
2021/03/05 06:05:13;;;;;;;2.13;0.90;;;2.80;99.90;;;;;;4863531;29;20032;-94
2021/03/05 06:07:40;;;;;;;10.13;1.00;;;2.80;99.90;;;;;;4864500;29;20033;-94
2021/03/05 06:10:07;;;;;;;1.80;0.75;;;2.80;99.90;;;;;;4864428;29;20399;-94
2021/03/05 06:12:32;;;;;;;6.57;1.00;;;2.80;99.90;;;;;;4870424;29;20052;-94
2021/03/05 06:14:58;;;;;;;3.08;1.17;;;2.80;99.90;;;;;;4870248;29;20030;-93
2021/03/05 06:17:40;;;;;;;3.88;0.88;;;2.80;99.90;;;;;;4870568;29;20041;-94
2021/03/05 06:20:07;;;;;;;4.60;1.58;;;2.80;99.90;;;;;;4869658;29;20090;-95
2021/03/05 06:22:33;;;;;;;4.45;1.38;;;2.80;99.90;;;;;;4868089;29;20043;-94
2021/03/05 06:24:59;;;;;;;6.05;1.80;;;2.80;99.90;;;;;;4866728;29;20101;-96
2021/03/05 06:27:30;;;;;;;7.65;1.30;;;2.80;99.90;;;;;;4865822;29;20029;-94
2021/03/05 06:30:00;;;;;;;7.75;1.00;;;2.70;99.90;;;;;;4866137;29;20056;-96
2021/03/05 06:32:52;;;;;;;4.30;0.95;;;2.70;99.90;;;;;;4867649;29;20069;-95
2021/03/05 06:35:24;;;;;;;4.88;0.98;;;2.80;99.90;;;;;;4866706;29;20037;-93
2021/03/05 06:37:53;;;;;;;2.78;1.00;;;2.80;99.90;;;;;;4870453;29;20403;-95
2021/03/05 06:40:18;;;;;;;7.72;1.30;;;2.80;99.90;;;;;;4866246;29;20041;-95
2021/03/05 06:42:48;;;;;;;6.40;1.50;;;2.80;99.90;;;;;;4866366;29;20042;-95
2021/03/05 06:45:15;;;;;;;3.22;1.00;;;2.80;99.90;;;;;;4863680;29;20036;-93
2021/03/05 06:48:05;;;;;;;5.13;1.00;;;2.80;99.90;;;;;;4864861;29;20026;-94
2021/03/05 06:50:36;;;;;;;6.32;1.13;;;2.80;99.90;;;;;;4864134;29;20029;-95
2021/03/05 06:53:21;;;;;;;9.90;1.20;;;2.80;99.90;;;;;;4865550;29;20132;-94
2021/03/05 06:55:48;;;;;;;7.45;2.25;;;2.90;99.90;;;;;;4881778;29;20021;-94
2021/03/05 06:58:14;;;;;;;9.93;1.80;;;2.80;99.90;;;;;;4883716;29;20030;-93
2021/03/05 07:00:41;;;;;;;5.35;1.50;;;2.90;99.90;;;;;;4878180;29;20036;-95
2021/03/05 07:03:23;;;;;;;8.15;1.30;;;2.80;99.90;;;;;;4864818;29;20051;-94
2021/03/05 07:05:52;;;;;;;4.95;1.65;;;2.80;99.90;;;;;;4865457;29;20022;-94
2021/03/05 07:08:38;;;;;;;6.13;1.20;;;2.80;99.90;;;;;;4864791;29;20117;-95
2021/03/05 07:11:07;;;;;;;5.82;1.00;;;2.80;99.90;;;;;;4863623;29;20033;-95
2021/03/05 07:13:47;;;;;;;3.88;1.40;;;2.80;99.90;;;;;;4864522;29;20516;-95
2021/03/05 07:16:13;;;;;;;12.27;2.00;;;2.70;99.90;;;;;;4873065;29;20037;-96
2021/03/05 07:18:38;;;;;;;7.63;1.15;;;2.80;99.90;;;;;;4867588;29;20055;-95
2021/03/05 07:21:06;;;;;;;4.63;0.88;;;2.80;99.90;;;;;;4874325;29;20025;-93
2021/03/05 07:23:32;;;;;;;3.63;1.20;;;2.80;99.90;;;;;;4866341;29;20583;-95
2021/03/05 07:26:00;;;;;;;5.82;1.15;;;2.80;99.90;;;;;;4864377;29;20025;-94
2021/03/05 07:28:26;;;;;;;6.00;1.05;;;2.90;99.90;;;;;;4864933;29;20046;-93
2021/03/05 07:30:52;;;;;;;4.70;0.82;;;2.90;99.90;;;;;;4873556;29;20025;-94
2021/03/05 07:33:19;;;;;;;4.32;1.50;;;2.90;99.90;;;;;;4865814;29;20093;-95
2021/03/05 07:35:46;;;;;;;3.92;1.10;;;2.90;99.90;;;;;;4866176;29;20532;-94
2021/03/05 07:38:23;;;;;;;2.28;0.80;;;2.90;99.90;;;;;;4866630;29;20062;-94
2021/03/05 07:40:49;;;;;;;9.18;1.63;;;2.90;99.90;;;;;;4860383;29;20083;-93
2021/03/05 07:43:15;;;;;;;5.60;1.15;;;2.90;99.90;;;;;;4851180;29;20135;-95
2021/03/05 07:45:41;;;;;;;4.78;1.13;;;3.00;99.90;;;;;;4863282;29;20053;-93
2021/03/05 07:48:12;;;;;;;2.85;0.95;;;3.00;99.90;;;;;;4866280;29;20121;-93
2021/03/05 07:50:38;;;;;;;5.25;1.65;;;3.00;99.90;;;;;;4864911;29;20046;-94
2021/03/05 07:53:04;;;;;;;6.00;1.20;;;3.00;99.90;;;;;;4864853;29;20045;-93
2021/03/05 07:55:41;;;;;;;7.55;1.30;;;3.00;99.90;;;;;;4864193;29;20022;-93
2021/03/05 07:58:07;;;;;;;4.57;1.10;;;3.00;99.90;;;;;;4870054;29;20033;-93
2021/03/05 08:00:48;;;;;;;6.85;0.98;;;3.10;99.90;;;;;;4864695;29;20029;-93
2021/03/05 08:03:24;;;;;;;3.78;1.08;;;3.10;99.90;;;;;;4862261;29;20033;-94
2021/03/05 08:05:50;;;;;;;7.20;1.17;;;3.10;99.90;;;;;;4865303;29;20095;-94
2021/03/05 08:08:24;;;;;;;11.30;1.95;;;3.20;99.90;;;;;;4863967;29;20105;-94
2021/03/05 08:10:56;;;;;;;5.85;1.20;;;3.20;99.90;;;;;;4862367;29;20409;-94
2021/03/05 08:13:46;;;;;;;8.80;1.40;;;3.20;99.90;;;;;;4859449;29;20058;-95
2021/03/05 08:16:30;;;;;;;3.10;1.17;;;3.20;99.90;;;;;;4859975;29;20032;-93
2021/03/05 08:19:05;;;;;;;5.57;1.23;;;3.30;99.90;;;;;;4859312;29;20064;-93
2021/03/05 08:21:54;;;;;;;4.75;1.65;;;3.30;99.90;;;;;;4858718;29;20124;-94
2021/03/05 08:24:21;;;;;;;5.18;0.90;;;3.40;99.90;;;;;;4855746;29;20032;-93
2021/03/05 08:27:04;;;;;;;7.38;1.40;;;3.40;99.90;;;;;;4859324;29;20124;-93
2021/03/05 08:29:51;;;;;;;5.63;1.92;;;3.40;99.90;;;;;;4860541;29;20042;-91
2021/03/05 08:32:35;;;;;;;6.57;1.38;;;3.50;99.90;;;;;;4862555;29;20030;-92
2021/03/05 08:35:16;;;;;;;4.10;1.15;;;3.50;99.90;;;;;;4864359;29;20048;-92
2021/03/05 08:38:01;;;;;;;3.67;1.00;;;3.60;99.90;;;;;;4864305;29;20033;-92
2021/03/05 08:40:27;;;;;;;4.45;1.10;;;3.60;99.90;;;;;;4863399;29;20050;-91
2021/03/05 08:43:09;;;;;;;7.65;1.45;;;3.70;99.90;;;;;;4861988;29;20021;-93
2021/03/05 08:45:49;;;;;;;4.57;1.10;;;3.80;99.90;;;;;;4861990;29;20124;-93
2021/03/05 08:48:30;;;;;;;7.83;1.50;;;3.90;99.90;;;;;;4862618;29;20060;-93
2021/03/05 08:51:06;;;;;;;1.67;0.95;;;4.00;99.90;;;;;;4871727;29;20278;-93
2021/03/05 08:53:37;;;;;;;5.22;1.10;;;4.10;99.90;;;;;;4867178;29;20036;-93
2021/03/05 08:56:03;;;;;;;3.42;0.82;;;4.20;99.90;;;;;;4862669;29;20424;-93
2021/03/05 08:58:29;;;;;;;6.93;1.40;;;4.40;99.90;;;;;;4823472;29;20034;-94
2021/03/05 09:00:54;;;;;;;3.75;0.90;;;4.50;99.90;;;;;;4879183;29;20085;-92
2021/03/05 09:03:20;;;;;;;7.00;0.93;;;4.60;99.90;;;;;;4872559;29;20029;-92
2021/03/05 09:05:48;;;;;;;3.45;0.90;;;4.70;99.90;;;;;;4887656;29;20041;-92
2021/03/05 09:08:16;;;;;;;2.17;1.00;;;4.80;99.90;;;;;;4883611;29;20037;-92
2021/03/05 09:10:55;;;;;;;5.07;1.73;;;4.90;99.90;;;;;;4865598;29;20034;-92
2021/03/05 09:13:32;;;;;;;4.05;1.25;;;4.90;99.90;;;;;;4866245;29;20050;-91
2021/03/05 09:16:00;;;;;;;3.15;1.20;;;5.00;99.90;;;;;;4866637;29;20112;-91
2021/03/05 09:18:28;;;;;;;3.17;1.10;;;5.00;99.90;;;;;;4866106;29;20040;-90
2021/03/05 09:20:56;;;;;;;5.30;1.20;;;5.00;99.90;;;;;;4879625;29;20057;-90
2021/03/05 09:23:37;;;;;;;6.30;1.63;;;5.10;99.90;;;;;;4893165;29;20033;-92
2021/03/05 09:26:14;;;;;;;1.83;0.75;;;5.00;99.90;;;;;;4892080;29;20029;-92
2021/03/05 09:28:41;;;;;;;4.10;1.08;;;5.00;99.90;;;;;;4890498;29;20036;-91
2021/03/05 09:31:13;;;;;;;2.58;0.98;;;5.00;99.90;;;;;;4889856;29;20395;-91
2021/03/05 09:33:41;;;;;;;2.00;1.75;;;4.90;99.90;;;;;;4888139;29;20040;-92
2021/03/05 09:36:12;;;;;;;5.60;1.20;;;4.90;99.90;;;;;;4885331;29;20424;-91
2021/03/05 09:38:52;;;;;;;6.10;1.05;;;4.90;99.90;;;;;;4886993;29;20029;-92
2021/03/05 09:41:23;;;;;;;7.63;1.70;;;4.90;99.90;;;;;;4889500;29;20461;-91
2021/03/05 09:44:01;;;;;;;4.38;1.10;;;4.90;99.90;;;;;;4890838;29;20096;-93
2021/03/05 09:46:29;;;;;;;5.60;1.33;;;4.90;99.90;;;;;;4887159;29;20131;-91
2021/03/05 09:48:56;;;;;;;5.82;1.35;;;4.90;99.90;;;;;;4875747;29;20029;-91
2021/03/05 09:51:23;;;;;;;5.95;2.33;;;5.00;99.90;;;;;;4885786;29;20052;-94
2021/03/05 09:53:56;;;;;;;3.17;1.35;;;5.00;99.90;;;;;;4871177;29;20037;-93
2021/03/05 09:56:24;;;;;;;5.60;1.40;;;5.10;99.90;;;;;;4871375;29;20029;-92
2021/03/05 09:59:00;;;;;;;4.88;1.33;;;5.10;99.90;;;;;;4873434;29;20495;-92
2021/03/05 10:01:28;;;;;;;9.40;1.75;;;5.10;99.90;;;;;;4881507;29;20092;-92
2021/03/05 10:03:56;;;;;;;3.03;1.30;;;5.20;99.90;;;;;;4875250;29;20111;-91
2021/03/05 10:06:22;;;;;;;9.60;1.00;;;5.20;99.90;;;;;;4873437;29;20059;-91
2021/03/05 10:08:58;;;;;;;4.25;1.40;;;5.30;99.90;;;;;;4870760;29;20053;-92
2021/03/05 10:11:34;;;;;;;4.35;1.10;;;5.30;99.90;;;;;;4871713;29;20124;-91
2021/03/05 10:14:02;;;;;;;9.98;1.33;;;5.30;99.90;;;;;;4869528;29;20025;-91
2021/03/05 10:16:37;;;;;;;5.03;2.22;;;5.40;99.90;;;;;;4877469;29;20029;-91
2021/03/05 10:19:17;;;;;;;2.92;1.05;;;5.40;99.90;;;;;;4869871;29;20069;-92
2021/03/05 10:21:47;;;;;;;2.50;0.60;;;5.50;99.90;;;;;;4866261;29;20040;-90
2021/03/05 10:24:15;;;;;;;4.28;1.15;;;5.50;99.90;;;;;;4872182;29;20185;-91
2021/03/05 10:29:43;;;;;;;8.73;1.92;;;5.60;99.90;;;;;;4886235;29;20062;-91
2021/03/05 10:32:27;;;;;;;1.13;0.88;;;5.60;99.90;;;;;;4887772;29;20052;-96
2021/03/05 10:34:54;;;;;;;4.70;1.02;;;5.60;99.80;;;;;;4870780;29;20037;-92
2021/03/05 10:37:21;;;;;;;2.38;0.85;;;5.60;99.30;;;;;;4878465;29;20077;-93
2021/03/05 10:39:49;;;;;;;3.03;0.82;;;5.60;99.00;;;;;;4868947;29;20041;-93
2021/03/05 10:42:16;;;;;;;1.58;1.00;;;5.60;98.90;;;;;;4885196;29;20037;-92
2021/03/05 10:44:45;;;;;;;4.00;1.05;;;5.60;98.50;;;;;;4873510;29;20029;-93
2021/03/05 10:47:15;;;;;;;6.13;1.13;;;5.50;98.50;;;;;;4873603;29;20025;-92
2021/03/05 10:49:44;;;;;;;4.30;1.17;;;5.60;98.50;;;;;;4888697;29;20025;-93
2021/03/05 10:52:12;;;;;;;3.90;1.23;;;5.60;98.40;;;;;;4872176;29;20041;-91
2021/03/05 10:54:42;;;;;;;2.25;0.88;;;5.70;98.20;;;;;;4873058;29;20025;-92
2021/03/05 10:57:12;;;;;;;;;;;5.70;98.00;;;;;;4875508;29;20045;-92
2021/03/05 10:59:38;;;;;;;3.75;0.80;;;5.80;97.80;;;;;;4874136;29;19908;-92
2021/03/05 11:02:05;;;;;;;2.58;0.82;;;5.80;97.40;;;;;;4883668;29;20034;-93
2021/03/05 11:04:31;;;;;;;1.00;0.60;;;5.80;97.00;;;;;;4892859;29;20032;-92
2021/03/05 11:06:56;;;;;;;2.55;0.73;;;5.70;96.80;;;;;;4892895;29;20093;-93
2021/03/05 11:09:27;;;;;;;3.17;0.80;;;5.70;96.70;;;;;;4890017;29;20075;-92
2021/03/05 11:11:54;;;;;;;2.05;0.47;;;5.70;97.00;;;;;;4889804;29;20040;-92
2021/03/05 11:14:21;;;;;;;0.52;0.20;;;5.60;96.30;;;;;;4890353;29;20502;-92
2021/03/05 11:16:47;;;;;;;1.42;0.30;;;5.60;95.90;;;;;;4890239;29;20043;-92
2021/03/05 11:19:13;;;;;;;1.20;0.40;;;5.60;95.40;;;;;;4888111;29;20136;-91
2021/03/05 11:21:39;;;;;;;1.55;0.45;;;5.70;95.20;;;;;;4888553;29;20067;-92
2021/03/05 11:24:06;;;;;;;7.55;0.85;;;5.70;94.60;;;;;;4888344;29;20032;-90
2021/03/05 11:26:32;;;;;;;1.13;0.50;;;5.70;94.30;;;;;;4886088;29;20040;-93
2021/03/05 11:28:58;;;;;;;3.95;0.50;;;5.80;93.90;;;;;;4888022;29;20032;-92
2021/03/05 11:31:24;;;;;;;2.45;0.65;;;5.80;93.70;;;;;;4904521;29;20534;-91
2021/03/05 11:33:50;;;;;;;1.77;0.80;;;5.90;93.50;;;;;;4907407;29;20032;-93
2021/03/05 11:36:19;;;;;;;5.13;1.02;;;5.90;93.40;;;;;;4870960;29;20177;-92
2021/03/05 11:38:48;;;;;;;3.00;0.70;;;5.90;93.20;;;;;;4883575;29;20206;-94
2021/03/05 11:41:15;;;;;;;3.38;1.00;;;6.00;93.10;;;;;;4881199;29;20490;-92
2021/03/05 11:43:49;;;;;;;3.15;1.13;;;6.00;92.90;;;;;;4880891;29;20039;-91
2021/03/05 11:46:19;;;;;;;2.10;1.20;;;6.10;92.80;;;;;;4865916;29;20036;-92
2021/03/05 11:48:45;;;;;;;2.08;1.10;;;6.10;92.60;;;;;;4868471;29;20040;-92
2021/03/05 11:51:11;;;;;;;2.83;1.30;;;6.20;92.50;;;;;;4874830;29;20029;-92
2021/03/05 11:53:37;;;;;;;1.90;1.02;;;6.20;92.40;;;;;;4883231;29;20089;-91
2021/03/05 11:56:06;;;;;;;0.90;0.65;;;6.20;92.30;;;;;;4885906;29;20029;-92
2021/03/05 11:58:33;;;;;;;4.65;1.00;;;6.20;92.20;;;;;;4879109;29;20044;-92
2021/03/05 12:01:02;;;;;;;4.80;0.82;;;6.30;92.10;;;;;;4867555;29;20114;-91
2021/03/05 12:03:28;;;;;;;5.20;0.80;;;6.30;92.10;;;;;;4880928;29;20141;-94
2021/03/05 12:05:54;;;;;;;2.40;0.77;;;6.20;91.80;;;;;;4881089;29;20029;-92
2021/03/05 12:08:21;;;;;;;5.22;0.93;;;6.20;91.60;;;;;;4863323;29;20025;-94
2021/03/05 12:10:49;;;;;;;5.43;1.23;;;6.10;91.70;;;;;;4864213;29;20033;-92
2021/03/05 12:13:15;;;;;;;3.13;0.98;;;6.10;91.80;;;;;;4863890;29;20052;-93
2021/03/05 12:15:42;;;;;;;3.65;0.80;;;6.00;91.90;;;;;;4872042;29;20101;-92
2021/03/05 12:18:09;;;;;;;4.85;0.95;;;6.00;92.00;;;;;;4887249;29;20037;-93
2021/03/05 12:20:36;;;;;;;4.15;1.30;;;6.00;92.00;;;;;;4869923;29;20021;-92
2021/03/05 12:23:02;;;;;;;1.85;0.63;;;6.00;92.00;;;;;;4886617;29;20021;-92
2021/03/05 12:25:28;;;;;;;2.60;0.80;;;6.00;91.90;;;;;;4870765;29;20029;-92
2021/03/05 12:27:54;;;;;;;5.40;1.13;;;5.90;91.80;;;;;;4886551;29;20033;-92
2021/03/05 12:30:21;;;;;;;4.57;0.75;;;5.90;91.90;;;;;;4868943;29;20478;-93
2021/03/05 12:32:49;;;;;;;3.78;0.80;;;5.90;91.80;;;;;;4866002;29;20087;-91
2021/03/05 12:35:16;;;;;;;2.88;1.00;;;5.90;91.70;;;;;;4865316;29;20029;-94
2021/03/05 12:37:43;;;;;;;3.10;0.98;;;5.90;91.70;;;;;;4864717;29;20120;-94
2021/03/05 12:40:12;;;;;;;3.13;0.80;;;5.90;91.60;;;;;;4881619;29;20072;-94
2021/03/05 12:42:39;;;;;;;1.95;0.70;;;6.00;91.70;;;;;;4885129;29;20036;-94
2021/03/05 12:45:07;;;;;;;4.60;1.08;;;6.10;91.60;;;;;;4873338;29;20028;-94
2021/03/05 12:47:35;;;;;;;4.30;0.90;;;6.20;91.50;;;;;;4874961;29;20033;-94
2021/03/05 12:50:03;;;;;;;3.65;1.13;;;6.30;91.30;;;;;;4874604;29;20483;-94
2021/03/05 12:52:29;;;;;;;12.02;1.20;;;6.50;91.20;;;;;;4866405;29;20069;-94
2021/03/05 12:54:55;;;;;;;2.55;1.00;;;6.60;91.00;;;;;;4865082;29;20033;-93
2021/03/05 12:57:21;;;;;;;4.93;1.38;;;6.70;90.80;;;;;;4881360;29;20036;-93
2021/03/05 12:59:47;;;;;;;6.68;1.85;;;6.70;90.50;;;;;;4865204;29;20085;-91
2021/03/05 13:02:14;;;;;;;1.83;1.33;;;6.60;90.50;;;;;;4871657;29;20041;-93
2021/03/05 13:04:43;;;;;;;3.30;1.33;;;6.60;90.40;;;;;;4884642;29;20059;-95
2021/03/05 13:07:09;;;;;;;4.88;1.30;;;6.40;90.40;;;;;;4873190;29;20029;-94